createdAt,value
2019-01-28T00:01:32.418Z,6.50
2019-01-28T00:06:31.968Z,6.40
2019-01-28T00:11:31.503Z,6.40
2019-01-28T00:16:31.900Z,6.40
2019-01-28T00:21:31.456Z,6.40
2019-01-28T00:26:31.026Z,6.50
2019-01-28T00:31:30.583Z,6.20
2019-01-28T00:36:30.700Z,6.30
2019-01-28T00:41:30.461Z,6.40
2019-01-28T00:46:29.990Z,6.40
2019-01-28T00:51:29.547Z,6.40
2019-01-28T00:56:29.113Z,6.30
2019-01-28T01:01:28.707Z,6.40
2019-01-28T01:06:28.243Z,6.40
2019-01-28T01:11:27.881Z,6.40
2019-01-28T01:16:28.490Z,6.30
2019-01-28T01:21:28.187Z,6.30
2019-01-28T01:26:27.755Z,6.30
2019-01-28T01:31:27.364Z,6.10
2019-01-28T01:36:26.939Z,6.10
2019-01-28T01:41:26.475Z,5.90
2019-01-28T01:46:25.991Z,5.90
2019-01-28T01:51:25.522Z,5.80
2019-01-28T01:56:25.049Z,5.70
2019-01-28T02:01:24.589Z,5.80
2019-01-28T02:06:24.129Z,5.70
2019-01-28T02:11:23.658Z,5.50
2019-01-28T02:16:23.450Z,5.40
2019-01-28T02:21:22.986Z,5.50
2019-01-28T02:26:22.532Z,5.50
2019-01-28T02:31:22.064Z,5.50
2019-01-28T02:36:21.607Z,5.50
2019-01-28T02:41:23.889Z,5.50
2019-01-28T02:46:23.519Z,5.70
2019-01-28T02:51:23.050Z,5.70
2019-01-28T02:56:22.588Z,5.60
2019-01-28T03:01:22.131Z,5.50
2019-01-28T03:06:21.737Z,5.40
2019-01-28T03:11:21.262Z,5.40
2019-01-28T03:16:20.878Z,5.20
2019-01-28T03:21:20.423Z,5.20
2019-01-28T03:26:19.944Z,5.20
2019-01-28T03:31:19.491Z,5.10
2019-01-28T03:36:19.007Z,5.00
2019-01-28T03:41:18.535Z,5.00
2019-01-28T03:46:18.082Z,5.10
2019-01-28T03:51:17.630Z,4.90
2019-01-28T03:56:17.158Z,4.90
2019-01-28T04:01:16.675Z,4.80
2019-01-28T04:06:16.202Z,4.70
2019-01-28T04:11:15.762Z,4.60
2019-01-28T04:16:15.285Z,4.40
2019-01-28T04:21:14.823Z,4.30
2019-01-28T04:26:14.353Z,4.30
2019-01-28T04:31:13.881Z,4.20
2019-01-28T04:36:13.408Z,4.10
2019-01-28T04:41:12.935Z,4.10
2019-01-28T04:46:12.562Z,4.00
2019-01-28T04:51:12.090Z,4.10
2019-01-28T04:56:11.613Z,4.10
2019-01-28T05:01:11.132Z,4.10
2019-01-28T05:06:11.043Z,4.10
2019-01-28T05:11:10.580Z,4.20
2019-01-28T05:16:10.191Z,4.30
2019-01-28T05:21:09.734Z,4.40
2019-01-28T05:26:09.257Z,4.50
2019-01-28T05:31:08.803Z,4.50
2019-01-28T05:36:08.425Z,4.60
2019-01-28T05:41:07.951Z,4.50
2019-01-28T05:46:07.497Z,4.40
2019-01-28T05:51:07.074Z,4.10
2019-01-28T05:56:06.618Z,4.10
2019-01-28T06:01:06.225Z,4.20
2019-01-28T06:06:05.765Z,4.10
2019-01-28T06:11:05.299Z,3.80
2019-01-28T06:16:04.975Z,3.80
2019-01-28T06:21:04.730Z,3.90
2019-01-28T06:26:04.482Z,4.10
2019-01-28T06:31:04.085Z,4.00
2019-01-28T06:36:03.701Z,4.10
2019-01-28T06:41:03.240Z,3.90
2019-01-28T06:46:02.763Z,3.90
2019-01-28T06:51:02.289Z,3.90
2019-01-28T06:56:01.822Z,3.60
2019-01-28T07:01:02.326Z,3.50
2019-01-28T07:06:01.865Z,3.40
2019-01-28T07:11:01.413Z,3.40
2019-01-28T07:16:02.105Z,3.40
2019-01-28T07:21:02.326Z,3.30
2019-01-28T07:26:01.881Z,3.40
2019-01-28T07:31:01.481Z,3.30
2019-01-28T07:36:01.049Z,3.20
2019-01-28T07:41:00.582Z,3.30
2019-01-28T07:46:00.122Z,3.20
2019-01-28T07:50:59.671Z,3.30
2019-01-28T07:55:59.197Z,3.40
2019-01-28T08:00:59.563Z,3.50
2019-01-28T08:05:59.887Z,3.40
2019-01-28T08:10:59.524Z,3.60
2019-01-28T08:15:59.045Z,3.60
2019-01-28T08:20:58.586Z,3.60
2019-01-28T08:25:58.231Z,3.90
2019-01-28T08:30:57.762Z,3.90
2019-01-28T08:35:57.892Z,3.90
2019-01-28T08:40:57.582Z,3.90
2019-01-28T08:45:57.117Z,3.90
2019-01-28T08:50:56.663Z,3.90
2019-01-28T08:55:56.189Z,4.30
2019-01-28T09:00:55.792Z,4.70
2019-01-28T09:05:55.332Z,4.40
2019-01-28T09:10:54.937Z,4.60
2019-01-28T09:15:54.473Z,4.90
2019-01-28T09:20:54.082Z,5.30
2019-01-28T09:25:53.673Z,5.70
2019-01-28T09:30:53.203Z,5.30
2019-01-28T09:35:52.735Z,6.00
2019-01-28T09:40:52.358Z,6.60
2019-01-28T09:45:51.958Z,6.10
2019-01-28T09:50:51.559Z,5.70
2019-01-28T09:55:51.181Z,6.10
2019-01-28T10:00:52.134Z,7.20
2019-01-28T10:05:51.740Z,7.30
2019-01-28T10:10:51.349Z,6.90
2019-01-28T10:15:50.978Z,8.20
2019-01-28T10:20:50.590Z,9.00
2019-01-28T10:25:50.204Z,9.30
2019-01-28T10:30:49.889Z,10.90
2019-01-28T10:35:49.582Z,11.90
2019-01-28T10:40:49.193Z,12.60
2019-01-28T10:45:48.832Z,11.50
2019-01-28T10:50:49.134Z,10.70
2019-01-28T10:55:51.429Z,12.20
2019-01-28T11:00:53.290Z,12.60
2019-01-28T11:05:54.098Z,11.40
2019-01-28T11:10:55.106Z,11.00
2019-01-28T11:15:54.830Z,11.20
2019-01-28T11:20:54.389Z,10.40
2019-01-28T11:25:54.014Z,10.50
2019-01-28T11:30:58.417Z,11.20
2019-01-28T11:36:05.164Z,10.70
2019-01-28T11:40:59.323Z,10.00
2019-01-28T11:46:03.688Z,10.80
2019-01-28T11:51:03.482Z,11.00
2019-01-28T11:56:03.041Z,10.90
2019-01-28T12:01:16.404Z,9.50
2019-01-28T12:06:15.937Z,8.70
2019-01-28T12:11:15.546Z,8.30
2019-01-28T12:16:15.156Z,7.70
2019-01-28T12:21:14.842Z,7.30
2019-01-28T12:26:14.433Z,7.20
2019-01-28T12:31:13.990Z,7.50
2019-01-28T12:36:14.439Z,7.90
2019-01-28T12:41:17.467Z,9.80
2019-01-28T12:46:15.233Z,10.40
2019-01-28T12:51:14.837Z,10.00
2019-01-28T12:56:14.362Z,8.90
2019-01-28T13:01:13.897Z,8.50
2019-01-28T13:06:13.430Z,8.10
2019-01-28T13:11:12.979Z,7.60
2019-01-28T13:16:12.606Z,7.60
2019-01-28T13:21:12.215Z,7.70
2019-01-28T13:26:11.818Z,7.20
2019-01-28T13:31:11.382Z,7.30
2019-01-28T13:36:10.984Z,7.30
2019-01-28T13:41:10.509Z,7.20
2019-01-28T13:46:10.038Z,7.40
2019-01-28T13:51:09.573Z,7.30
2019-01-28T13:56:09.182Z,7.30
2019-01-28T14:01:08.965Z,7.30
2019-01-28T14:06:08.697Z,7.30
2019-01-28T14:11:08.238Z,7.10
2019-01-28T14:16:07.842Z,7.10
2019-01-28T14:21:08.357Z,7.00
2019-01-28T14:26:07.890Z,7.10
2019-01-28T14:31:07.442Z,7.20
2019-01-28T14:36:07.142Z,7.30
2019-01-28T14:41:06.753Z,7.30
2019-01-28T14:46:06.367Z,7.40
2019-01-28T14:51:06.065Z,7.50
2019-01-28T14:56:06.215Z,7.40
2019-01-28T15:01:05.814Z,7.20
2019-01-28T15:06:17.497Z,7.20
2019-01-28T15:11:18.307Z,6.90
2019-01-28T15:16:17.913Z,6.80
2019-01-28T15:21:17.538Z,6.80
2019-01-28T15:26:17.154Z,6.30
2019-01-28T15:31:16.939Z,6.00
2019-01-28T15:36:16.486Z,5.80
2019-01-28T15:41:16.010Z,5.80
2019-01-28T15:46:15.558Z,5.90
2019-01-28T15:51:15.105Z,5.90
2019-01-28T15:56:14.637Z,6.00
2019-01-28T16:01:14.177Z,5.90
2019-01-28T16:06:13.788Z,5.80
2019-01-28T16:11:13.418Z,5.50
2019-01-28T16:16:13.102Z,5.50
2019-01-28T16:21:12.821Z,5.40
2019-01-28T16:26:12.358Z,5.00
2019-01-28T16:31:11.969Z,5.00
2019-01-28T16:36:11.862Z,5.00
2019-01-28T16:41:11.398Z,4.90
2019-01-28T16:46:10.937Z,4.90
2019-01-28T16:51:10.524Z,5.00
2019-01-28T16:56:11.029Z,5.00
2019-01-28T17:01:10.562Z,4.90
2019-01-28T17:06:10.278Z,4.90
2019-01-28T17:11:09.816Z,5.00
2019-01-28T17:16:09.349Z,5.00
2019-01-28T17:21:08.887Z,5.10
2019-01-28T17:26:08.425Z,5.10
2019-01-28T17:31:08.182Z,5.30
2019-01-28T17:36:08.218Z,5.30
2019-01-28T17:41:07.747Z,5.30
2019-01-28T17:46:07.406Z,5.30
2019-01-28T17:51:07.142Z,5.20
2019-01-28T17:56:06.742Z,5.00
2019-01-28T18:01:06.306Z,5.00
2019-01-28T18:06:05.928Z,5.20
2019-01-28T18:11:05.878Z,5.10
2019-01-28T18:16:06.221Z,5.00
2019-01-28T18:21:05.837Z,5.10
2019-01-28T18:26:05.505Z,5.00
2019-01-28T18:31:05.039Z,4.70
2019-01-28T18:36:05.719Z,4.30
2019-01-28T18:41:06.170Z,4.20
2019-01-28T18:46:06.073Z,4.30
2019-01-28T18:51:05.784Z,4.20
2019-01-28T18:56:07.050Z,4.30
2019-01-28T19:01:07.077Z,4.40
2019-01-28T19:06:12.397Z,4.40
2019-01-28T19:11:17.793Z,4.30
2019-01-28T19:16:36.464Z,4.30
2019-01-28T19:21:41.600Z,4.30
2019-01-28T19:26:42.515Z,4.40
2019-01-28T19:31:42.249Z,4.30
2019-01-28T19:36:41.933Z,4.30
2019-01-28T19:41:41.469Z,4.20
2019-01-28T19:46:41.014Z,4.10
2019-01-28T19:51:40.560Z,4.10
2019-01-28T19:56:40.170Z,4.10
2019-01-28T20:01:39.706Z,4.10
2019-01-28T20:06:39.282Z,4.30
2019-01-28T20:11:38.892Z,4.10
2019-01-28T20:16:38.512Z,4.10
2019-01-28T20:21:38.153Z,4.20
2019-01-28T20:26:37.777Z,4.30
2019-01-28T20:31:37.482Z,4.20
2019-01-28T20:36:37.042Z,4.20
2019-01-28T20:41:36.598Z,4.20
2019-01-28T20:46:36.161Z,4.20
2019-01-28T20:51:35.825Z,4.20
2019-01-28T20:56:35.421Z,4.30
2019-01-28T21:01:35.051Z,4.40
2019-01-28T21:06:34.628Z,4.20
2019-01-28T21:11:34.309Z,4.30
2019-01-28T21:16:33.881Z,4.20
2019-01-28T21:21:41.595Z,4.30
2019-01-28T21:26:35.076Z,4.20
2019-01-28T21:31:38.278Z,4.20
2019-01-28T21:37:01.637Z,4.20
2019-01-28T21:42:02.553Z,4.10
2019-01-28T21:47:02.187Z,4.10
2019-01-28T21:52:02.046Z,4.10
2019-01-28T21:57:01.773Z,4.00
2019-01-28T22:02:01.882Z,4.10
2019-01-28T22:07:02.251Z,4.00
2019-01-28T22:12:01.798Z,4.00
2019-01-28T22:17:01.405Z,4.00
2019-01-28T22:22:01.987Z,4.00
2019-01-28T22:27:01.547Z,4.00
2019-01-28T22:32:01.105Z,3.90
2019-01-28T22:37:00.658Z,3.90
2019-01-28T22:42:00.209Z,3.80
2019-01-28T22:47:05.813Z,3.70
2019-01-28T22:52:08.053Z,3.70
2019-01-28T22:57:06.851Z,3.70
2019-01-28T23:02:07.147Z,3.70
2019-01-28T23:07:06.779Z,3.80
2019-01-28T23:12:06.309Z,3.70
2019-01-28T23:17:05.871Z,3.70
2019-01-28T23:22:05.583Z,3.70
2019-01-28T23:27:05.466Z,3.60
2019-01-28T23:32:05.654Z,3.60
2019-01-28T23:37:05.278Z,3.60
2019-01-28T23:42:05.103Z,3.60
2019-01-28T23:47:04.726Z,3.50
2019-01-28T23:52:04.298Z,3.50
2019-01-28T23:57:03.923Z,3.50
